Flugplatz Ansbach (ETEB)

Hier findest Du alle Informationen zum Flugplatz Ansbach (ETEB).

Informationen für Piloten zum Flugplatz Ansbach

Hier findest Du alle relevanten Informationen, die Du als Pilot benötigst, um Ansbach anzufliegen.

Flugplatz: Ansbach ICAO-Code: ETEB
Frequenz Turm: 122,100 Mhz GAFOR Gebiet: 55
Frequenz Ground: 122,100 Mhz Mogas: ja
Platzrunde: - Landegebühr: -
Platzhöhe: - Sunrise: 06:54 Uhr UTC
Pisten: 08/26 - 370 m x , ASPH Sunset: 15:21 Uhr UTC

Mitglieder, die in Ansbach fliegen

Flugwetter am Flugplatz Ansbach

Die METAR Information stammen aus EDDN (38.32 km entfernt).

METAR Code:
2022/10/04 14:50
EDDN 041450Z AUTO 14006KT 110V180 CAVOK 16/08 Q1023 NOSIG

Temperatur: 1,7 °C Niederschlag: - Wind: 4,7 kt (max.: 13,7 kt in Böen)
Temperatur (min.): 1,6 °C Luftdruck: 1021 hPa Windrichtung: 247 °
Temperatur (max.): 2,5 °C Luftfeuchtigkeit: 90 % Bewölkung: 8/8

Flugschulen am Flugplatz Ansbach

Am Flugplatz Ansbach gibt es leider keine Flugschule.

Benachbarte Flugplätze und Flugschulen

Es gibt 23 weitere Flugplätze in einem Umkreis von 50 km um den Flugplatz Ansbach.

Jetzt anmelden

Passwort vergessen

Umfrage Archiv

Sendet Ihr ADS-B und/oder FLARM?

Ja
84.6 %
Nein
15.4 %
Stimmen: 254 | Diskussion
Anzeige: Roland Aircraft
Statistik Alle Mitglieder

Aktuell sind 52 Besucher online, davon 1 Mitglied und 51 Gäste.


Mitglieder online:
SiggiS 

Anzeige: ULPower Aero Engines Anzeige: EasyVFR